sensor_id;sensor_type;location;lat;lon;timestamp;pressure;altitude;pressure_sealevel;temperature;humidity
35489;BME280;21602;55.670;37.578;2022-11-20T00:02:16;99164.47;;;-1.85;100.00
35489;BME280;21602;55.670;37.578;2022-11-20T00:04:41;99165.28;;;-1.84;100.00
35489;BME280;21602;55.670;37.578;2022-11-20T00:07:07;99167.56;;;-1.81;100.00
35489;BME280;21602;55.670;37.578;2022-11-20T00:09:32;99166.28;;;-1.85;99.88
35489;BME280;21602;55.670;37.578;2022-11-20T00:11:58;99164.94;;;-1.81;99.92
35489;BME280;21602;55.670;37.578;2022-11-20T00:14:23;99164.66;;;-1.78;99.89
35489;BME280;21602;55.670;37.578;2022-11-20T00:16:49;99166.59;;;-1.80;99.76
35489;BME280;21602;55.670;37.578;2022-11-20T00:19:14;99169.53;;;-1.83;99.96
35489;BME280;21602;55.670;37.578;2022-11-20T00:21:40;99170.03;;;-1.79;100.00
35489;BME280;21602;55.670;37.578;2022-11-20T00:24:08;99170.53;;;-1.76;100.00
35489;BME280;21602;55.670;37.578;2022-11-20T00:26:33;99171.03;;;-1.72;100.00
35489;BME280;21602;55.670;37.578;2022-11-20T00:28:59;99170.06;;;-1.63;100.00
35489;BME280;21602;55.670;37.578;2022-11-20T00:31:26;99166.69;;;-1.56;99.81
35489;BME280;21602;55.670;37.578;2022-11-20T00:33:51;99172.72;;;-1.55;99.54
35489;BME280;21602;55.670;37.578;2022-11-20T00:36:18;99177.97;;;-1.55;99.49
35489;BME280;21602;55.670;37.578;2022-11-20T00:38:44;99166.97;;;-1.59;98.92
35489;BME280;21602;55.670;37.578;2022-11-20T00:41:10;99173.50;;;-1.71;98.47
35489;BME280;21602;55.670;37.578;2022-11-20T00:43:37;99172.78;;;-1.81;98.51
35489;BME280;21602;55.670;37.578;2022-11-20T00:46:04;99176.72;;;-1.85;98.73
35489;BME280;21602;55.670;37.578;2022-11-20T00:48:31;99172.47;;;-1.86;98.84
35489;BME280;21602;55.670;37.578;2022-11-20T00:50:56;99173.41;;;-1.95;98.36
35489;BME280;21602;55.670;37.578;2022-11-20T00:53:22;99177.31;;;-1.99;98.09
35489;BME280;21602;55.670;37.578;2022-11-20T00:55:55;99170.44;;;-2.09;98.18
35489;BME280;21602;55.670;37.578;2022-11-20T00:58:23;99169.78;;;-2.02;99.00
35489;BME280;21602;55.670;37.578;2022-11-20T01:00:49;99167.00;;;-2.01;98.68
35489;BME280;21602;55.670;37.578;2022-11-20T01:03:15;99178.78;;;-1.97;98.48
35489;BME280;21602;55.670;37.578;2022-11-20T01:05:41;99178.16;;;-1.91;98.60
35489;BME280;21602;55.670;37.578;2022-11-20T01:08:07;99186.53;;;-1.87;98.37
35489;BME280;21602;55.670;37.578;2022-11-20T01:10:32;99178.97;;;-1.90;97.88
35489;BME280;21602;55.670;37.578;2022-11-20T01:12:58;99177.97;;;-1.97;97.18
35489;BME280;21602;55.670;37.578;2022-11-20T01:15:42;99175.31;;;-2.06;96.61
35489;BME280;21602;55.670;37.578;2022-11-20T01:18:07;99173.03;;;-2.09;96.86
35489;BME280;21602;55.670;37.578;2022-11-20T01:20:36;99171.84;;;-2.14;96.79
35489;BME280;21602;55.670;37.578;2022-11-20T01:23:02;99177.25;;;-2.16;96.71
35489;BME280;21602;55.670;37.578;2022-11-20T01:25:28;99171.84;;;-2.14;97.07
35489;BME280;21602;55.670;37.578;2022-11-20T01:27:54;99176.59;;;-2.18;96.58
35489;BME280;21602;55.670;37.578;2022-11-20T01:30:19;99176.59;;;-2.18;96.74
35489;BME280;21602;55.670;37.578;2022-11-20T01:32:45;99171.72;;;-2.13;96.77
35489;BME280;21602;55.670;37.578;2022-11-20T01:35:10;99179.03;;;-2.16;96.62
35489;BME280;21602;55.670;37.578;2022-11-20T01:37:36;99180.16;;;-2.19;96.77
35489;BME280;21602;55.670;37.578;2022-11-20T01:40:01;99183.44;;;-2.17;96.94
35489;BME280;21602;55.670;37.578;2022-11-20T01:42:28;99175.41;;;-2.23;96.53
35489;BME280;21602;55.670;37.578;2022-11-20T01:47:57;99192.53;;;-2.29;96.41
35489;BME280;21602;55.670;37.578;2022-11-20T01:50:23;99189.91;;;-2.29;96.33
35489;BME280;21602;55.670;37.578;2022-11-20T01:53:09;99187.00;;;-2.26;96.33
35489;BME280;21602;55.670;37.578;2022-11-20T01:55:39;99199.44;;;-2.20;96.59
35489;BME280;21602;55.670;37.578;2022-11-20T01:58:07;99193.41;;;-2.20;96.16
35489;BME280;21602;55.670;37.578;2022-11-20T02:00:33;99200.13;;;-2.18;96.50
35489;BME280;21602;55.670;37.578;2022-11-20T02:03:00;99203.66;;;-2.27;95.94
35489;BME280;21602;55.670;37.578;2022-11-20T02:07:52;99215.47;;;-2.23;96.53
35489;BME280;21602;55.670;37.578;2022-11-20T02:10:19;99211.53;;;-2.19;96.33
35489;BME280;21602;55.670;37.578;2022-11-20T02:12:45;99222.53;;;-2.15;96.30
35489;BME280;21602;55.670;37.578;2022-11-20T02:15:49;99222.22;;;-2.12;96.64
35489;BME280;21602;55.670;37.578;2022-11-20T02:18:16;99214.22;;;-2.11;96.78
35489;BME280;21602;55.670;37.578;2022-11-20T02:20:42;99214.78;;;-1.99;97.39
35489;BME280;21602;55.670;37.578;2022-11-20T02:23:12;99217.88;;;-1.95;96.94
35489;BME280;21602;55.670;37.578;2022-11-20T02:25:41;99231.28;;;-1.98;96.71
35489;BME280;21602;55.670;37.578;2022-11-20T02:28:08;99223.09;;;-1.95;96.45
35489;BME280;21602;55.670;37.578;2022-11-20T02:30:33;99235.88;;;-1.92;96.51
35489;BME280;21602;55.670;37.578;2022-11-20T02:32:59;99235.41;;;-1.88;96.61
35489;BME280;21602;55.670;37.578;2022-11-20T02:37:51;99234.31;;;-1.85;95.95
35489;BME280;21602;55.670;37.578;2022-11-20T02:40:18;99242.63;;;-1.90;95.39
35489;BME280;21602;55.670;37.578;2022-11-20T02:42:44;99235.06;;;-1.93;95.42
35489;BME280;21602;55.670;37.578;2022-11-20T02:45:09;99236.88;;;-1.93;95.40
35489;BME280;21602;55.670;37.578;2022-11-20T02:47:35;99236.06;;;-1.94;95.42
35489;BME280;21602;55.670;37.578;2022-11-20T02:50:00;99245.38;;;-1.91;95.39
35489;BME280;21602;55.670;37.578;2022-11-20T02:52:26;99238.03;;;-1.88;95.50
35489;BME280;21602;55.670;37.578;2022-11-20T02:54:52;99233.56;;;-1.95;94.98
35489;BME280;21602;55.670;37.578;2022-11-20T02:57:18;99244.84;;;-1.95;94.86
35489;BME280;21602;55.670;37.578;2022-11-20T02:59:43;99241.28;;;-1.94;95.35
35489;BME280;21602;55.670;37.578;2022-11-20T03:02:09;99234.72;;;-1.98;95.34
35489;BME280;21602;55.670;37.578;2022-11-20T03:04:35;99240.25;;;-2.01;95.19
35489;BME280;21602;55.670;37.578;2022-11-20T03:07:00;99233.03;;;-2.07;95.37
35489;BME280;21602;55.670;37.578;2022-11-20T03:09:26;99232.16;;;-2.16;95.35
35489;BME280;21602;55.670;37.578;2022-11-20T03:11:51;99235.59;;;-2.15;95.54
35489;BME280;21602;55.670;37.578;2022-11-20T03:14:17;99239.53;;;-2.11;95.40
35489;BME280;21602;55.670;37.578;2022-11-20T03:16:42;99248.25;;;-2.02;95.81
35489;BME280;21602;55.670;37.578;2022-11-20T03:19:08;99245.47;;;-2.01;95.54
35489;BME280;21602;55.670;37.578;2022-11-20T03:21:33;99250.41;;;-1.98;95.33
35489;BME280;21602;55.670;37.578;2022-11-20T03:23:59;99249.53;;;-2.07;95.02
35489;BME280;21602;55.670;37.578;2022-11-20T03:26:25;99255.69;;;-2.16;94.75
35489;BME280;21602;55.670;37.578;2022-11-20T03:28:52;99256.00;;;-2.19;94.94
35489;BME280;21602;55.670;37.578;2022-11-20T03:31:19;99256.97;;;-2.20;94.67
35489;BME280;21602;55.670;37.578;2022-11-20T03:33:45;99252.38;;;-2.26;94.80
35489;BME280;21602;55.670;37.578;2022-11-20T03:36:12;99244.53;;;-2.26;95.12
35489;BME280;21602;55.670;37.578;2022-11-20T03:38:38;99250.13;;;-2.21;95.20
35489;BME280;21602;55.670;37.578;2022-11-20T03:41:04;99249.84;;;-2.10;95.30
35489;BME280;21602;55.670;37.578;2022-11-20T03:43:30;99256.28;;;-2.04;94.59
35489;BME280;21602;55.670;37.578;2022-11-20T03:45:56;99251.13;;;-2.14;93.88
35489;BME280;21602;55.670;37.578;2022-11-20T03:48:21;99252.91;;;-2.22;94.03
35489;BME280;21602;55.670;37.578;2022-11-20T03:50:47;99254.31;;;-2.28;94.55
35489;BME280;21602;55.670;37.578;2022-11-20T03:53:15;99264.09;;;-2.30;94.47
35489;BME280;21602;55.670;37.578;2022-11-20T03:55:41;99262.66;;;-2.24;94.79
35489;BME280;21602;55.670;37.578;2022-11-20T03:58:07;99269.28;;;-2.12;95.09
35489;BME280;21602;55.670;37.578;2022-11-20T04:00:32;99270.78;;;-2.10;94.97
35489;BME280;21602;55.670;37.578;2022-11-20T04:02:58;99278.16;;;-2.05;94.97
35489;BME280;21602;55.670;37.578;2022-11-20T04:05:24;99277.34;;;-2.06;94.75
35489;BME280;21602;55.670;37.578;2022-11-20T04:07:50;99274.72;;;-2.06;94.95
35489;BME280;21602;55.670;37.578;2022-11-20T04:10:15;99270.63;;;-2.08;94.47
35489;BME280;21602;55.670;37.578;2022-11-20T04:12:41;99282.66;;;-2.15;94.15
35489;BME280;21602;55.670;37.578;2022-11-20T04:15:06;99283.84;;;-2.10;94.54
35489;BME280;21602;55.670;37.578;2022-11-20T04:17:32;99285.13;;;-2.14;93.96
35489;BME280;21602;55.670;37.578;2022-11-20T04:19:58;99287.34;;;-2.27;93.18
35489;BME280;21602;55.670;37.578;2022-11-20T04:22:23;99293.84;;;-2.31;93.50
35489;BME280;21602;55.670;37.578;2022-11-20T04:24:49;99292.34;;;-2.34;93.52
35489;BME280;21602;55.670;37.578;2022-11-20T04:27:14;99296.47;;;-2.31;93.86
35489;BME280;21602;55.670;37.578;2022-11-20T04:29:40;99295.69;;;-2.23;94.15
35489;BME280;21602;55.670;37.578;2022-11-20T04:32:05;99297.25;;;-2.13;94.30
35489;BME280;21602;55.670;37.578;2022-11-20T04:34:31;99299.25;;;-2.07;93.65
35489;BME280;21602;55.670;37.578;2022-11-20T04:36:56;99302.69;;;-2.06;93.17
35489;BME280;21602;55.670;37.578;2022-11-20T04:39:22;99300.22;;;-2.08;93.03
35489;BME280;21602;55.670;37.578;2022-11-20T04:41:48;99307.03;;;-2.15;92.75
35489;BME280;21602;55.670;37.578;2022-11-20T04:44:13;99314.56;;;-2.12;93.02
35489;BME280;21602;55.670;37.578;2022-11-20T04:46:40;99324.34;;;-2.14;92.69
35489;BME280;21602;55.670;37.578;2022-11-20T04:49:06;99327.66;;;-2.12;92.94
35489;BME280;21602;55.670;37.578;2022-11-20T04:51:32;99332.19;;;-2.14;92.82
35489;BME280;21602;55.670;37.578;2022-11-20T04:53:58;99331.53;;;-2.16;92.63
35489;BME280;21602;55.670;37.578;2022-11-20T04:56:23;99332.81;;;-2.20;92.50
35489;BME280;21602;55.670;37.578;2022-11-20T04:58:49;99331.63;;;-2.25;92.78
35489;BME280;21602;55.670;37.578;2022-11-20T05:01:17;99339.13;;;-2.30;92.99
35489;BME280;21602;55.670;37.578;2022-11-20T05:03:43;99343.16;;;-2.36;93.45
35489;BME280;21602;55.670;37.578;2022-11-20T05:06:10;99338.59;;;-2.34;93.75
35489;BME280;21602;55.670;37.578;2022-11-20T05:08:36;99340.53;;;-2.36;93.91
35489;BME280;21602;55.670;37.578;2022-11-20T05:11:20;99344.28;;;-2.39;93.73
35489;BME280;21602;55.670;37.578;2022-11-20T05:13:46;99342.19;;;-2.35;93.86
35489;BME280;21602;55.670;37.578;2022-11-20T05:16:17;99352.72;;;-2.27;94.05
35489;BME280;21602;55.670;37.578;2022-11-20T05:18:43;99347.25;;;-2.16;94.28
35489;BME280;21602;55.670;37.578;2022-11-20T05:21:09;99350.66;;;-2.15;93.92
35489;BME280;21602;55.670;37.578;2022-11-20T05:23:35;99347.44;;;-2.09;94.29
35489;BME280;21602;55.670;37.578;2022-11-20T05:26:01;99353.34;;;-2.07;93.85
35489;BME280;21602;55.670;37.578;2022-11-20T05:28:27;99361.50;;;-2.10;93.37
35489;BME280;21602;55.670;37.578;2022-11-20T05:30:52;99359.84;;;-2.11;93.31
35489;BME280;21602;55.670;37.578;2022-11-20T05:33:18;99365.91;;;-2.11;93.35
35489;BME280;21602;55.670;37.578;2022-11-20T05:35:44;99375.09;;;-2.07;93.25
35489;BME280;21602;55.670;37.578;2022-11-20T05:38:09;99374.75;;;-2.12;93.21
35489;BME280;21602;55.670;37.578;2022-11-20T05:40:35;99378.63;;;-2.16;93.39
35489;BME280;21602;55.670;37.578;2022-11-20T05:43:01;99376.66;;;-2.14;93.48
35489;BME280;21602;55.670;37.578;2022-11-20T05:45:26;99378.00;;;-2.10;93.59
35489;BME280;21602;55.670;37.578;2022-11-20T05:47:52;99383.75;;;-2.06;93.52
35489;BME280;21602;55.670;37.578;2022-11-20T05:50:17;99386.75;;;-2.01;93.20
35489;BME280;21602;55.670;37.578;2022-11-20T05:52:43;99391.53;;;-1.96;92.93
35489;BME280;21602;55.670;37.578;2022-11-20T05:55:09;99395.78;;;-1.95;92.78
35489;BME280;21602;55.670;37.578;2022-11-20T05:57:35;99398.19;;;-2.02;92.11
35489;BME280;21602;55.670;37.578;2022-11-20T06:00:00;99410.81;;;-1.97;92.56
35489;BME280;21602;55.670;37.578;2022-11-20T06:02:26;99412.09;;;-2.01;92.25
35489;BME280;21602;55.670;37.578;2022-11-20T06:04:51;99414.25;;;-1.97;92.54
35489;BME280;21602;55.670;37.578;2022-11-20T06:07:17;99414.63;;;-1.92;92.42
35489;BME280;21602;55.670;37.578;2022-11-20T06:09:43;99411.03;;;-1.91;92.06
35489;BME280;21602;55.670;37.578;2022-11-20T06:12:08;99411.38;;;-1.86;92.41
35489;BME280;21602;55.670;37.578;2022-11-20T06:14:34;99413.88;;;-1.84;91.97
35489;BME280;21602;55.670;37.578;2022-11-20T06:16:59;99423.34;;;-1.83;92.02
35489;BME280;21602;55.670;37.578;2022-11-20T06:19:25;99426.34;;;-1.78;92.12
35489;BME280;21602;55.670;37.578;2022-11-20T06:21:50;99435.97;;;-1.78;91.50
35489;BME280;21602;55.670;37.578;2022-11-20T06:24:16;99427.50;;;-1.72;91.57
35489;BME280;21602;55.670;37.578;2022-11-20T06:26:42;99437.53;;;-1.68;91.36
35489;BME280;21602;55.670;37.578;2022-11-20T06:29:08;99447.38;;;-1.62;91.16
35489;BME280;21602;55.670;37.578;2022-11-20T06:31:33;99445.66;;;-1.53;91.35
35489;BME280;21602;55.670;37.578;2022-11-20T06:34:04;99450.66;;;-1.42;91.30
35489;BME280;21602;55.670;37.578;2022-11-20T06:36:31;99451.13;;;-1.38;90.47
35489;BME280;21602;55.670;37.578;2022-11-20T06:38:57;99446.81;;;-1.47;90.02
35489;BME280;21602;55.670;37.578;2022-11-20T06:41:23;99442.53;;;-1.57;89.94
35489;BME280;21602;55.670;37.578;2022-11-20T06:43:49;99443.84;;;-1.52;90.63
35489;BME280;21602;55.670;37.578;2022-11-20T06:46:15;99441.59;;;-1.47;90.58
35489;BME280;21602;55.670;37.578;2022-11-20T06:48:45;99435.22;;;-1.45;90.48
35489;BME280;21602;55.670;37.578;2022-11-20T06:51:11;99446.81;;;-1.47;90.04
35489;BME280;21602;55.670;37.578;2022-11-20T06:53:37;99438.31;;;-1.49;89.90
35489;BME280;21602;55.670;37.578;2022-11-20T06:56:02;99444.88;;;-1.45;90.18
35489;BME280;21602;55.670;37.578;2022-11-20T06:58:29;99432.97;;;-1.40;89.83
35489;BME280;21602;55.670;37.578;2022-11-20T07:01:04;99442.69;;;-1.32;89.96
35489;BME280;21602;55.670;37.578;2022-11-20T07:06:24;99426.69;;;-1.21;89.59
35489;BME280;21602;55.670;37.578;2022-11-20T07:08:52;99430.59;;;-1.25;89.35
35489;BME280;21602;55.670;37.578;2022-11-20T07:11:19;99431.75;;;-1.27;89.44
35489;BME280;21602;55.670;37.578;2022-11-20T07:13:49;99445.44;;;-1.34;88.83
35489;BME280;21602;55.670;37.578;2022-11-20T07:16:42;99442.53;;;-1.31;89.45
35489;BME280;21602;55.670;37.578;2022-11-20T07:19:13;99447.13;;;-1.24;89.59
35489;BME280;21602;55.670;37.578;2022-11-20T07:21:48;99453.59;;;-1.11;89.95
35489;BME280;21602;55.670;37.578;2022-11-20T07:24:13;99444.16;;;-1.04;88.72
35489;BME280;21602;55.670;37.578;2022-11-20T07:26:42;99440.53;;;-1.02;88.29
35489;BME280;21602;55.670;37.578;2022-11-20T07:29:11;99446.09;;;-1.06;87.70
35489;BME280;21602;55.670;37.578;2022-11-20T07:31:36;99445.94;;;-1.04;88.33
35489;BME280;21602;55.670;37.578;2022-11-20T07:34:08;99448.22;;;-1.01;88.24
35489;BME280;21602;55.670;37.578;2022-11-20T07:36:37;99458.75;;;-0.93;88.64
35489;BME280;21602;55.670;37.578;2022-11-20T07:39:02;99455.38;;;-0.85;88.07
35489;BME280;21602;55.670;37.578;2022-11-20T07:41:28;99458.28;;;-0.88;87.43
35489;BME280;21602;55.670;37.578;2022-11-20T07:43:54;99461.56;;;-0.86;87.79
35489;BME280;21602;55.670;37.578;2022-11-20T07:46:20;99461.91;;;-0.81;87.57
35489;BME280;21602;55.670;37.578;2022-11-20T07:48:45;99462.44;;;-0.78;87.40
35489;BME280;21602;55.670;37.578;2022-11-20T07:51:11;99464.69;;;-0.83;87.04
35489;BME280;21602;55.670;37.578;2022-11-20T07:53:39;99466.84;;;-0.78;87.40
35489;BME280;21602;55.670;37.578;2022-11-20T07:56:05;99463.09;;;-0.75;87.15
35489;BME280;21602;55.670;37.578;2022-11-20T07:58:31;99464.22;;;-0.78;86.97
35489;BME280;21602;55.670;37.578;2022-11-20T08:01:02;99465.72;;;-0.75;87.08
35489;BME280;21602;55.670;37.578;2022-11-20T08:03:28;99470.50;;;-0.71;86.71
35489;BME280;21602;55.670;37.578;2022-11-20T08:05:54;99479.06;;;-0.61;87.28
35489;BME280;21602;55.670;37.578;2022-11-20T08:08:22;99481.53;;;-0.51;86.91
35489;BME280;21602;55.670;37.578;2022-11-20T08:10:50;99473.19;;;-0.46;86.19
35489;BME280;21602;55.670;37.578;2022-11-20T08:13:16;99480.09;;;-0.45;85.53
35489;BME280;21602;55.670;37.578;2022-11-20T08:16:00;99491.22;;;-0.52;85.88
35489;BME280;21602;55.670;37.578;2022-11-20T08:18:26;99487.78;;;-0.44;86.35
35489;BME280;21602;55.670;37.578;2022-11-20T08:20:52;99483.22;;;-0.34;86.15
35489;BME280;21602;55.670;37.578;2022-11-20T08:23:22;99469.94;;;-0.24;85.90
35489;BME280;21602;55.670;37.578;2022-11-20T08:25:48;99473.25;;;-0.22;85.54
35489;BME280;21602;55.670;37.578;2022-11-20T08:28:16;99487.03;;;-0.28;84.57
35489;BME280;21602;55.670;37.578;2022-11-20T08:30:42;99490.75;;;-0.39;85.00
35489;BME280;21602;55.670;37.578;2022-11-20T08:33:08;99494.88;;;-0.36;85.69
35489;BME280;21602;55.670;37.578;2022-11-20T08:35:37;99492.75;;;-0.24;85.74
35489;BME280;21602;55.670;37.578;2022-11-20T08:38:06;99493.28;;;-0.13;85.71
35489;BME280;21602;55.670;37.578;2022-11-20T08:40:33;99495.41;;;-0.16;85.09
35489;BME280;21602;55.670;37.578;2022-11-20T08:43:04;99495.91;;;-0.13;85.54
35489;BME280;21602;55.670;37.578;2022-11-20T08:45:30;99501.66;;;-0.01;85.65
35489;BME280;21602;55.670;37.578;2022-11-20T08:47:59;99495.13;;;0.11;85.23
35489;BME280;21602;55.670;37.578;2022-11-20T08:50:25;99502.34;;;0.17;85.18
35489;BME280;21602;55.670;37.578;2022-11-20T08:52:51;99507.44;;;0.27;84.58
35489;BME280;21602;55.670;37.578;2022-11-20T08:55:20;99509.56;;;0.32;84.01
35489;BME280;21602;55.670;37.578;2022-11-20T08:57:49;99523.03;;;0.37;84.33
35489;BME280;21602;55.670;37.578;2022-11-20T09:00:15;99523.84;;;0.37;83.88
35489;BME280;21602;55.670;37.578;2022-11-20T09:02:41;99533.03;;;0.41;83.90
35489;BME280;21602;55.670;37.578;2022-11-20T09:05:10;99543.22;;;0.44;83.91
35489;BME280;21602;55.670;37.578;2022-11-20T09:07:36;99537.47;;;0.41;83.52
35489;BME280;21602;55.670;37.578;2022-11-20T09:10:02;99545.84;;;0.36;83.64
35489;BME280;21602;55.670;37.578;2022-11-20T09:12:28;99538.63;;;0.30;83.57
35489;BME280;21602;55.670;37.578;2022-11-20T09:14:57;99550.75;;;0.31;83.93
35489;BME280;21602;55.670;37.578;2022-11-20T09:17:23;99551.94;;;0.29;84.42
35489;BME280;21602;55.670;37.578;2022-11-20T09:19:48;99552.41;;;0.24;84.50
35489;BME280;21602;55.670;37.578;2022-11-20T09:22:14;99562.44;;;0.29;84.38
35489;BME280;21602;55.670;37.578;2022-11-20T09:24:40;99569.97;;;0.32;84.35
35489;BME280;21602;55.670;37.578;2022-11-20T09:27:05;99573.41;;;0.32;84.45
35489;BME280;21602;55.670;37.578;2022-11-20T09:29:31;99586.22;;;0.35;84.59
35489;BME280;21602;55.670;37.578;2022-11-20T09:31:57;99582.91;;;0.33;84.13
35489;BME280;21602;55.670;37.578;2022-11-20T09:34:22;99584.25;;;0.29;84.58
35489;BME280;21602;55.670;37.578;2022-11-20T09:36:48;99592.13;;;0.29;84.75
35489;BME280;21602;55.670;37.578;2022-11-20T09:39:14;99595.56;;;0.30;84.69
35489;BME280;21602;55.670;37.578;2022-11-20T09:47:01;99588.19;;;0.41;84.94
35489;BME280;21602;55.670;37.578;2022-11-20T09:54:39;99585.50;;;0.09;85.80
35489;BME280;21602;55.670;37.578;2022-11-20T09:59:36;99597.44;;;-0.13;86.74
35489;BME280;21602;55.670;37.578;2022-11-20T10:02:11;99593.31;;;-0.16;87.19
35489;BME280;21602;55.670;37.578;2022-11-20T10:04:42;99586.75;;;-0.12;87.32
35489;BME280;21602;55.670;37.578;2022-11-20T10:07:13;99593.03;;;-0.05;87.51
35489;BME280;21602;55.670;37.578;2022-11-20T10:09:43;99598.47;;;0.02;87.37
35489;BME280;21602;55.670;37.578;2022-11-20T10:17:38;99595.66;;;-0.05;87.61
35489;BME280;21602;55.670;37.578;2022-11-20T10:23:23;99615.47;;;-0.10;87.42
35489;BME280;21602;55.670;37.578;2022-11-20T10:26:00;99612.19;;;-0.12;87.69
35489;BME280;21602;55.670;37.578;2022-11-20T10:31:06;99607.09;;;-0.14;87.61
35489;BME280;21602;55.670;37.578;2022-11-20T10:33:36;99608.75;;;-0.13;87.80
35489;BME280;21602;55.670;37.578;2022-11-20T10:36:15;99613.00;;;-0.12;87.59
35489;BME280;21602;55.670;37.578;2022-11-20T10:38:44;99612.19;;;-0.12;87.25
35489;BME280;21602;55.670;37.578;2022-11-20T10:41:16;99606.47;;;-0.08;87.36
35489;BME280;21602;55.670;37.578;2022-11-20T10:46:23;99616.00;;;0.02;86.95
35489;BME280;21602;55.670;37.578;2022-11-20T10:48:49;99616.03;;;0.10;86.77
35489;BME280;21602;55.670;37.578;2022-11-20T10:51:35;99617.34;;;0.14;86.64
35489;BME280;21602;55.670;37.578;2022-11-20T10:54:09;99632.63;;;0.10;86.33
35489;BME280;21602;55.670;37.578;2022-11-20T11:01:50;99625.53;;;0.03;85.54
35489;BME280;21602;55.670;37.578;2022-11-20T11:04:23;99626.97;;;-0.03;85.17
35489;BME280;21602;55.670;37.578;2022-11-20T11:07:12;99630.25;;;-0.01;85.42
35489;BME280;21602;55.670;37.578;2022-11-20T11:09:41;99638.13;;;-0.01;85.55
35489;BME280;21602;55.670;37.578;2022-11-20T11:12:09;99642.72;;;-0.03;85.20
35489;BME280;21602;55.670;37.578;2022-11-20T11:14:42;99648.09;;;-0.13;85.21
35489;BME280;21602;55.670;37.578;2022-11-20T11:17:17;99653.66;;;-0.16;85.38
35489;BME280;21602;55.670;37.578;2022-11-20T11:22:59;99658.72;;;-0.22;85.10
35489;BME280;21602;55.670;37.578;2022-11-20T11:25:26;99655.75;;;-0.28;84.76
35489;BME280;21602;55.670;37.578;2022-11-20T11:27:53;99653.59;;;-0.24;84.74
35489;BME280;21602;55.670;37.578;2022-11-20T11:30:21;99650.16;;;-0.24;84.78
35489;BME280;21602;55.670;37.578;2022-11-20T11:32:47;99648.34;;;-0.24;84.59
35489;BME280;21602;55.670;37.578;2022-11-20T11:35:24;99652.78;;;-0.24;84.31
35489;BME280;21602;55.670;37.578;2022-11-20T11:37:50;99649.88;;;-0.21;84.25
35489;BME280;21602;55.670;37.578;2022-11-20T11:40:17;99646.41;;;-0.22;83.30
35489;BME280;21602;55.670;37.578;2022-11-20T11:42:46;99645.47;;;-0.13;83.85
35489;BME280;21602;55.670;37.578;2022-11-20T11:45:15;99655.00;;;-0.12;82.22
35489;BME280;21602;55.670;37.578;2022-11-20T11:52:39;99661.75;;;-0.35;82.06
35489;BME280;21602;55.670;37.578;2022-11-20T11:55:09;99658.94;;;-0.42;81.84
35489;BME280;21602;55.670;37.578;2022-11-20T11:58:01;99665.94;;;-0.50;81.58
35489;BME280;21602;55.670;37.578;2022-11-20T12:00:28;99668.84;;;-0.54;81.81
35489;BME280;21602;55.670;37.578;2022-11-20T12:05:48;99667.22;;;-0.55;81.89
35489;BME280;21602;55.670;37.578;2022-11-20T12:08:20;99667.94;;;-0.44;82.08
35489;BME280;21602;55.670;37.578;2022-11-20T12:13:37;99672.34;;;-0.45;80.67
35489;BME280;21602;55.670;37.578;2022-11-20T12:16:09;99670.72;;;-0.46;80.65
35489;BME280;21602;55.670;37.578;2022-11-20T12:18:36;99672.00;;;-0.50;80.05
35489;BME280;21602;55.670;37.578;2022-11-20T12:21:05;99672.28;;;-0.53;79.89
35489;BME280;21602;55.670;37.578;2022-11-20T12:34:47;99662.22;;;-0.40;79.44
35489;BME280;21602;55.670;37.578;2022-11-20T12:39:48;99657.38;;;-0.53;80.22
35489;BME280;21602;55.670;37.578;2022-11-20T12:42:27;99666.41;;;-0.55;80.60
35489;BME280;21602;55.670;37.578;2022-11-20T12:53:04;99673.53;;;-0.39;80.61
35489;BME280;21602;55.670;37.578;2022-11-20T12:55:34;99689.00;;;-0.54;80.75
35489;BME280;21602;55.670;37.578;2022-11-20T12:58:39;99684.56;;;-0.62;80.95
35489;BME280;21602;55.670;37.578;2022-11-20T13:01:00;99692.56;;;-0.81;81.23
35489;BME280;21602;55.670;37.578;2022-11-20T13:06:12;99690.22;;;-0.92;81.44
35489;BME280;21602;55.670;37.578;2022-11-20T13:08:39;99691.34;;;-0.95;81.90
35489;BME280;21602;55.670;37.578;2022-11-20T13:11:19;99691.38;;;-0.87;81.84
35489;BME280;21602;55.670;37.578;2022-11-20T13:18:52;99682.41;;;-0.66;81.07
35489;BME280;21602;55.670;37.578;2022-11-20T13:21:22;99685.97;;;-0.67;81.36
35489;BME280;21602;55.670;37.578;2022-11-20T13:26:44;99690.47;;;-0.60;81.47
35489;BME280;21602;55.670;37.578;2022-11-20T13:29:17;99697.41;;;-0.50;81.34
35489;BME280;21602;55.670;37.578;2022-11-20T13:31:44;99698.94;;;-0.40;80.72
35489;BME280;21602;55.670;37.578;2022-11-20T13:34:14;99699.81;;;-0.31;80.35
35489;BME280;21602;55.670;37.578;2022-11-20T13:36:49;99702.16;;;-0.20;80.00
35489;BME280;21602;55.670;37.578;2022-11-20T13:39:23;99712.19;;;-0.15;79.86
35489;BME280;21602;55.670;37.578;2022-11-20T13:41:56;99705.84;;;-0.13;79.73
35489;BME280;21602;55.670;37.578;2022-11-20T13:46:55;99707.78;;;-0.15;78.58
35489;BME280;21602;55.670;37.578;2022-11-20T13:49:29;99712.94;;;-0.31;78.48
35489;BME280;21602;55.670;37.578;2022-11-20T13:54:49;99715.59;;;-0.49;78.03
35489;BME280;21602;55.670;37.578;2022-11-20T13:57:25;99717.03;;;-0.55;78.28
35489;BME280;21602;55.670;37.578;2022-11-20T13:59:57;99720.22;;;-0.69;78.54
35489;BME280;21602;55.670;37.578;2022-11-20T14:02:25;99726.28;;;-0.68;78.67
35489;BME280;21602;55.670;37.578;2022-11-20T14:04:51;99729.44;;;-0.65;79.08
35489;BME280;21602;55.670;37.578;2022-11-20T14:07:18;99715.50;;;-0.65;78.81
35489;BME280;21602;55.670;37.578;2022-11-20T14:09:50;99719.91;;;-0.66;78.64
35489;BME280;21602;55.670;37.578;2022-11-20T14:12:18;99729.25;;;-0.63;78.81
35489;BME280;21602;55.670;37.578;2022-11-20T14:14:51;99719.00;;;-0.57;78.79
35489;BME280;21602;55.670;37.578;2022-11-20T14:17:30;99734.13;;;-0.50;78.94
35489;BME280;21602;55.670;37.578;2022-11-20T14:19:58;99735.47;;;-0.46;78.56
35489;BME280;21602;55.670;37.578;2022-11-20T14:22:29;99743.16;;;-0.45;78.39
35489;BME280;21602;55.670;37.578;2022-11-20T14:27:32;99731.22;;;-0.47;78.81
35489;BME280;21602;55.670;37.578;2022-11-20T14:30:00;99730.53;;;-0.49;78.61
35489;BME280;21602;55.670;37.578;2022-11-20T14:32:27;99736.28;;;-0.46;78.60